Hlavní strana
METAR-TAF:

METAR-TAF

Letiště :

Maxwellova letecká základna

Montgomery, Alabama, Spojené státy americké

zeměpisná šířka: 32-23N, zeměpisná délka: 086-22W, výška: 51 m

Aktuální stav počasí

Zpráva byla vytvořena před 1 hodinou a 2 minutami, v 10:56 UTC
Bezvětří
Teplota 21°C
Vlhkost vzduchu 94%
Tlak 1021 hPa
Viditelnost: 12.9 km
Jasno

METAR: KMXF 241056Z AUTO 00000KT 8SM CLR 21/20 A3014 RMK AO2 SLP207 T02070204

Čas: 06:58 (11:58 UTC)

Předpověď počasí

Zpráva byla vytvořena před 13 hodinami a 58 minutami, v 22:00 UTC
Předpověď platná od 23 v 22 UTC do 25 v 01 UTC
Jihojihovýchodní vítr 6 kt
Viditelnost 10 km a více
Skoro jasno ve výšce 5500 ft
Skoro jasno ve výšce 11000 ft
Změna
od 24 v 12 UTC do 24 v 13 UTC
Jihozápadní vítr 6 kt
Viditelnost: 2811 m
Skoro jasno ve výšce 3500 ft
Polojasno ve výšce 7000 ft

TAF: KMXF 232200Z 2322/2501 15006KT 9999 FEW055 FEW110 QNH3006INS BECMG 2412/2413 22006KT 9999 FEW035 SCT070 QNH3006INS TX33/2322Z TN20/2411Z LAST NO AMDS AFT 2322 NEXT 2811

Stav a předpovědi počasí z více než 4 000 letišť (zprávy METAR a TAF).

Červené a žluté tečky na mapě představují dostupné meteorologické stanice.

Když kurzor umístíte na tečku, zobrazí se název stanice.

Pak kliknutím zobrazíte stav a předpověď počasí.

Chcete-li změnit mapu, kliknutím na zelené tlačítko se znaménkem +mapu přiblížíte, kliknutím na zelené tlačítko se znaménkem – mapu oddálíte a kliknutím na zelené šipky přejdete na sousední mapy.


METAR-TAF: